Time;durP1;ratioP1;P1;durP2;ratioP2;P2;SDS_P1;SDS_P2;PMS_P1;PMS_P2;Temp;Humidity;BMP_temperature;BMP_pressure;BME280_temperature;BME280_humidity;BME280_pressure;Samples;Min_cycle;Max_cycle;Signal;HPM_P1;HPM_P2
2023/05/08 00:02:15;;;;;;;23.60;13.70;;;12.90;99.90;;;;;;5073494;28;20499;-79
2023/05/08 00:04:41;;;;;;;23.85;14.45;;;12.90;99.90;;;;;;5074568;28;20481;-78
2023/05/08 00:07:06;;;;;;;24.23;14.57;;;12.80;99.90;;;;;;5073912;28;20048;-80
2023/05/08 00:09:32;;;;;;;26.35;14.80;;;12.80;99.90;;;;;;5075160;28;20072;-81
2023/05/08 00:11:58;;;;;;;24.48;14.15;;;12.80;99.90;;;;;;5074976;28;20060;-79
2023/05/08 00:14:23;;;;;;;24.42;14.57;;;12.80;99.90;;;;;;5058201;28;20044;-81
2023/05/08 00:16:50;;;;;;;26.40;14.48;;;12.80;99.90;;;;;;5073513;28;20120;-81
2023/05/08 00:19:15;;;;;;;24.27;13.70;;;12.80;99.90;;;;;;5056663;28;20044;-78
2023/05/08 00:21:41;;;;;;;26.45;14.98;;;12.80;99.90;;;;;;5056908;28;20074;-79
2023/05/08 00:24:07;;;;;;;25.17;14.18;;;12.80;99.90;;;;;;5074155;28;20044;-79
2023/05/08 00:26:33;;;;;;;25.58;14.85;;;12.80;99.90;;;;;;5073942;28;20044;-80
2023/05/08 00:28:58;;;;;;;25.33;14.77;;;12.80;99.90;;;;;;5056737;28;20055;-79
2023/05/08 00:31:25;;;;;;;24.00;14.55;;;12.70;99.90;;;;;;5072825;28;20040;-79
2023/05/08 00:33:50;;;;;;;26.60;15.35;;;12.70;99.90;;;;;;5073888;28;20052;-79
2023/05/08 00:36:16;;;;;;;25.58;15.10;;;12.70;99.90;;;;;;5073814;28;20048;-79
2023/05/08 00:38:42;;;;;;;27.75;15.68;;;12.70;99.90;;;;;;5073161;28;20083;-79
2023/05/08 00:41:08;;;;;;;25.40;14.93;;;12.60;99.90;;;;;;5073706;28;20080;-80
2023/05/08 00:43:34;;;;;;;29.60;16.20;;;12.70;99.90;;;;;;5073844;28;20040;-80
2023/05/08 00:46:01;;;;;;;26.75;15.70;;;12.60;99.90;;;;;;5072978;28;20135;-80
2023/05/08 00:48:29;;;;;;;26.45;15.23;;;12.60;99.90;;;;;;5073083;28;20480;-79
2023/05/08 00:50:55;;;;;;;26.95;15.15;;;12.60;99.90;;;;;;5074197;28;20074;-79
2023/05/08 00:53:22;;;;;;;28.25;16.27;;;12.60;99.90;;;;;;5072616;28;20076;-78
2023/05/08 00:55:51;;;;;;;25.88;15.63;;;12.50;99.90;;;;;;5073858;28;20123;-79
2023/05/08 00:58:17;;;;;;;28.00;15.82;;;12.50;99.90;;;;;;5073359;28;20400;-78
2023/05/08 01:00:44;;;;;;;26.95;16.05;;;12.50;99.90;;;;;;5072945;28;20049;-81
2023/05/08 01:03:11;;;;;;;30.50;16.30;;;12.40;99.90;;;;;;5072623;28;20048;-79
2023/05/08 01:05:37;;;;;;;;;;;12.30;99.90;;;;;;5073605;28;20052;-80
2023/05/08 01:08:03;;;;;;;26.20;15.33;;;12.30;99.90;;;;;;5073840;28;19927;-80
2023/05/08 01:10:41;;;;;;;31.63;16.15;;;12.30;99.90;;;;;;5056216;28;20291;-82
2023/05/08 01:13:10;;;;;;;29.75;15.77;;;12.20;99.90;;;;;;5056088;28;20051;-79
2023/05/08 01:16:03;;;;;;;26.85;15.73;;;12.10;99.90;;;;;;5072534;28;20109;-80
2023/05/08 01:18:37;;;;;;;28.60;15.95;;;12.10;99.90;;;;;;5056627;28;20495;-81
2023/05/08 01:21:12;;;;;;;27.52;15.55;;;12.00;99.90;;;;;;5073633;28;20040;-80
2023/05/08 01:23:53;;;;;;;30.85;15.73;;;12.00;99.90;;;;;;5073350;28;20045;-81
2023/05/08 01:26:36;;;;;;;27.30;15.77;;;11.90;99.90;;;;;;5072861;28;20052;-81
2023/05/08 01:29:22;;;;;;;27.35;15.38;;;11.90;99.90;;;;;;5073564;28;20044;-79
2023/05/08 01:31:51;;;;;;;26.55;15.93;;;11.80;99.90;;;;;;5073751;28;20463;-80
2023/05/08 01:34:34;;;;;;;28.98;16.50;;;11.70;99.90;;;;;;5056672;28;20155;-81
2023/05/08 01:37:05;;;;;;;27.75;15.65;;;11.70;99.90;;;;;;5071985;28;20048;-79
2023/05/08 01:39:59;;;;;;;29.83;16.25;;;11.70;99.90;;;;;;5056144;28;20084;-80
2023/05/08 01:42:34;;;;;;;26.67;15.05;;;11.60;99.90;;;;;;5030032;28;20058;-80
2023/05/08 01:45:06;;;;;;;28.77;15.50;;;11.50;99.90;;;;;;5073177;28;20084;-78
2023/05/08 01:47:34;;;;;;;29.40;15.20;;;11.50;99.90;;;;;;5073911;28;20040;-80
2023/05/08 01:50:06;;;;;;;28.70;15.23;;;11.50;99.90;;;;;;5072817;28;20580;-79
2023/05/08 01:53:10;;;;;;;25.05;15.32;;;11.50;99.90;;;;;;5073876;28;20044;-78
2023/05/08 01:55:39;;;;;;;26.90;15.55;;;11.40;99.90;;;;;;5058597;28;20106;-79
2023/05/08 01:58:08;;;;;;;26.40;14.60;;;11.40;99.90;;;;;;5073660;28;20064;-78
2023/05/08 02:00:36;;;;;;;28.02;15.13;;;11.30;99.90;;;;;;5074038;28;20055;-79
2023/05/08 02:03:05;;;;;;;29.73;15.88;;;11.30;99.90;;;;;;5056053;28;20055;-81
2023/05/08 02:05:32;;;;;;;27.73;16.30;;;11.30;99.90;;;;;;5075908;28;20044;-80
2023/05/08 02:07:58;;;;;;;27.02;15.27;;;11.20;99.90;;;;;;5076800;28;20057;-80
2023/05/08 02:10:25;;;;;;;28.23;15.18;;;11.20;99.90;;;;;;5059855;28;20137;-79
2023/05/08 02:12:53;;;;;;;29.10;16.20;;;11.10;99.90;;;;;;5059754;28;20051;-80
2023/05/08 02:15:21;;;;;;;30.15;15.50;;;11.10;99.90;;;;;;5075874;28;20048;-79
2023/05/08 02:17:49;;;;;;;29.38;16.00;;;11.10;99.90;;;;;;5075320;28;20110;-79
2023/05/08 02:20:15;;;;;;;28.30;15.75;;;11.10;99.90;;;;;;5076100;28;20400;-78
2023/05/08 02:22:49;;;;;;;31.67;16.70;;;11.00;99.90;;;;;;5076405;28;20051;-79
2023/05/08 02:25:15;;;;;;;28.38;15.65;;;11.00;99.90;;;;;;5080941;28;20314;-81
2023/05/08 02:27:45;;;;;;;27.70;16.13;;;11.00;99.90;;;;;;5077294;28;20048;-78
2023/05/08 02:30:16;;;;;;;29.95;14.95;;;10.90;99.90;;;;;;5060546;28;20438;-80
2023/05/08 02:32:47;;;;;;;27.50;15.75;;;10.90;99.90;;;;;;5077240;28;20050;-80
2023/05/08 02:35:15;;;;;;;27.35;15.45;;;10.80;99.90;;;;;;5076329;28;20079;-80
2023/05/08 02:37:47;;;;;;;28.08;15.23;;;10.90;99.90;;;;;;5075692;28;20099;-79
2023/05/08 02:40:15;;;;;;;28.63;15.43;;;10.80;99.90;;;;;;5077274;28;20044;-80
2023/05/08 02:42:42;;;;;;;31.70;15.50;;;10.80;99.90;;;;;;5077080;28;20049;-81
2023/05/08 02:45:10;;;;;;;28.38;15.20;;;10.80;99.90;;;;;;5060698;28;20041;-80
2023/05/08 02:48:03;;;;;;;28.92;15.57;;;10.80;99.90;;;;;;5078681;28;20060;-79
2023/05/08 02:50:57;;;;;;;27.52;15.07;;;10.70;99.90;;;;;;5077061;28;20040;-79
2023/05/08 02:53:37;;;;;;;28.17;14.98;;;10.70;99.90;;;;;;5056181;28;20079;-79
2023/05/08 02:56:35;;;;;;;31.23;14.68;;;10.70;99.90;;;;;;5058510;28;20070;-79
2023/05/08 02:59:07;;;;;;;27.25;14.95;;;10.70;99.90;;;;;;5070751;28;20055;-79
2023/05/08 03:01:41;;;;;;;28.67;15.48;;;10.60;99.90;;;;;;5060402;28;20048;-79
2023/05/08 03:04:09;;;;;;;27.60;15.50;;;10.60;99.90;;;;;;5078515;28;20056;-80
2023/05/08 03:06:43;;;;;;;28.70;15.50;;;10.60;99.90;;;;;;5078380;28;20050;-79
2023/05/08 03:09:19;;;;;;;27.60;15.48;;;10.60;99.90;;;;;;5075949;28;20048;-79
2023/05/08 03:11:49;;;;;;;29.77;15.13;;;10.60;99.90;;;;;;5076302;28;20129;-78
2023/05/08 03:14:19;;;;;;;29.90;15.85;;;10.60;99.90;;;;;;5075997;28;20040;-79
2023/05/08 03:16:49;;;;;;;27.67;15.93;;;10.60;99.90;;;;;;5075775;28;20040;-78
2023/05/08 03:19:32;;;;;;;29.50;15.45;;;10.60;99.90;;;;;;5076380;28;20101;-80
2023/05/08 03:22:00;;;;;;;29.25;15.27;;;10.60;99.90;;;;;;5074495;28;20117;-80
2023/05/08 03:24:28;;;;;;;27.67;15.20;;;10.60;99.90;;;;;;5076106;28;20059;-80
2023/05/08 03:26:55;;;;;;;25.80;14.88;;;10.60;99.90;;;;;;5057777;28;20040;-80
2023/05/08 03:29:22;;;;;;;;;;;10.60;99.90;;;;;;5058193;28;20047;-81
2023/05/08 03:31:51;;;;;;;28.23;13.95;;;10.60;99.90;;;;;;5057338;28;19924;-79
2023/05/08 03:34:19;;;;;;;25.77;14.13;;;10.50;99.90;;;;;;5057785;28;20055;-80
2023/05/08 03:36:45;;;;;;;27.42;15.02;;;10.50;99.90;;;;;;5075664;28;20044;-79
2023/05/08 03:39:11;;;;;;;28.48;14.43;;;10.50;99.90;;;;;;5075899;28;20047;-80
2023/05/08 03:41:37;;;;;;;27.60;14.68;;;10.40;99.90;;;;;;5075613;28;20376;-79
2023/05/08 03:44:04;;;;;;;29.50;14.68;;;10.40;99.90;;;;;;5074763;28;20527;-80
2023/05/08 03:46:34;;;;;;;28.20;15.05;;;10.40;99.90;;;;;;5074333;28;20075;-79
2023/05/08 03:49:03;;;;;;;27.67;14.60;;;10.40;99.90;;;;;;5075230;28;20048;-80
2023/05/08 03:51:31;;;;;;;26.95;14.60;;;10.40;99.90;;;;;;5075206;28;20052;-79
2023/05/08 03:53:56;;;;;;;27.95;14.82;;;10.40;99.90;;;;;;5074746;28;20383;-81
2023/05/08 03:56:22;;;;;;;29.90;15.02;;;10.40;99.90;;;;;;5057115;28;20143;-81
2023/05/08 03:59:07;;;;;;;25.92;14.73;;;10.50;99.90;;;;;;5076613;28;20190;-79
2023/05/08 04:02:11;;;;;;;28.40;14.75;;;10.40;99.90;;;;;;5075299;28;20041;-80
2023/05/08 04:04:41;;;;;;;27.73;14.55;;;10.40;99.90;;;;;;5063062;28;20064;-79
2023/05/08 04:07:14;;;;;;;28.77;14.25;;;10.40;99.90;;;;;;5075240;28;20044;-80
2023/05/08 04:09:44;;;;;;;26.23;13.80;;;10.40;99.90;;;;;;5074999;28;20048;-80
2023/05/08 04:12:32;;;;;;;26.85;14.68;;;10.40;99.90;;;;;;5074264;28;20369;-79
2023/05/08 04:15:20;;;;;;;27.58;14.45;;;10.40;99.90;;;;;;5075057;28;20056;-81
2023/05/08 04:17:56;;;;;;;26.35;14.45;;;10.40;99.90;;;;;;5075433;28;20051;-79
2023/05/08 04:20:25;;;;;;;23.63;13.55;;;10.40;99.90;;;;;;5076103;28;20048;-79
2023/05/08 04:22:53;;;;;;;27.63;14.25;;;10.40;99.90;;;;;;5075768;28;20052;-80
2023/05/08 04:25:20;;;;;;;24.77;13.80;;;10.40;99.90;;;;;;5074976;28;20091;-80
2023/05/08 04:27:47;;;;;;;26.10;14.20;;;10.40;99.90;;;;;;5058279;28;20459;-81
2023/05/08 04:30:13;;;;;;;;;;;10.40;99.90;;;;;;5076869;28;20048;-79
2023/05/08 04:32:40;;;;;;;24.45;12.68;;;10.40;99.90;;;;;;5075089;28;19927;-81
2023/05/08 04:35:06;;;;;;;24.65;13.75;;;10.40;99.90;;;;;;5074871;28;20044;-79
2023/05/08 04:37:32;;;;;;;26.77;13.98;;;10.40;99.90;;;;;;5058213;28;20115;-79
2023/05/08 04:39:59;;;;;;;26.98;13.32;;;10.40;99.90;;;;;;5074979;28;20079;-80
2023/05/08 04:42:25;;;;;;;24.55;13.68;;;10.40;99.90;;;;;;5075261;28;20337;-79
2023/05/08 04:44:52;;;;;;;27.10;13.63;;;10.40;99.90;;;;;;5076056;28;20044;-80
2023/05/08 04:47:18;;;;;;;25.63;13.48;;;10.40;99.90;;;;;;5075610;28;20105;-79
2023/05/08 04:49:44;;;;;;;28.92;14.52;;;10.40;99.90;;;;;;5040991;28;20037;-80
2023/05/08 04:52:10;;;;;;;26.77;13.93;;;10.40;99.90;;;;;;5075365;28;20496;-80
2023/05/08 04:54:36;;;;;;;28.65;13.23;;;10.30;99.90;;;;;;5058901;28;20079;-78
2023/05/08 04:57:03;;;;;;;24.33;13.73;;;10.40;99.90;;;;;;5075015;28;20378;-79
2023/05/08 04:59:29;;;;;;;23.77;13.15;;;10.40;99.90;;;;;;5074864;28;20052;-79
2023/05/08 05:01:56;;;;;;;24.83;13.57;;;10.40;99.90;;;;;;5073430;28;20098;-80
2023/05/08 05:04:22;;;;;;;24.65;13.63;;;10.50;99.90;;;;;;5075107;28;20405;-80
2023/05/08 05:06:47;;;;;;;25.58;13.65;;;10.60;99.90;;;;;;5073859;28;20045;-80
2023/05/08 05:09:13;;;;;;;23.08;13.00;;;10.70;99.90;;;;;;5075113;28;20068;-80
2023/05/08 05:11:42;;;;;;;24.27;13.35;;;10.80;99.90;;;;;;5073494;28;20052;-81
2023/05/08 05:14:07;;;;;;;26.60;13.40;;;10.90;99.90;;;;;;5074641;28;20061;-79
2023/05/08 05:16:33;;;;;;;25.00;12.90;;;11.00;99.90;;;;;;5074936;28;20128;-80
2023/05/08 05:18:59;;;;;;;23.70;13.45;;;11.00;99.90;;;;;;5074319;28;20045;-80
2023/05/08 05:21:26;;;;;;;23.42;12.43;;;11.10;99.90;;;;;;5073680;28;20090;-80
2023/05/08 05:23:52;;;;;;;25.17;13.10;;;11.20;99.90;;;;;;5074256;28;20068;-80
2023/05/08 05:26:18;;;;;;;25.60;13.60;;;11.30;99.90;;;;;;5073804;28;20170;-80
2023/05/08 05:28:44;;;;;;;24.10;13.23;;;11.40;99.90;;;;;;5073233;28;20171;-78
2023/05/08 05:31:09;;;;;;;22.42;12.80;;;11.50;99.90;;;;;;5073056;28;20049;-80
2023/05/08 05:33:35;;;;;;;23.73;12.40;;;11.60;99.90;;;;;;5073868;28;20048;-78
2023/05/08 05:36:01;;;;;;;22.50;13.35;;;11.60;99.90;;;;;;5074532;28;20064;-79
2023/05/08 05:38:27;;;;;;;21.13;12.52;;;11.60;99.90;;;;;;5056787;28;20040;-78
2023/05/08 05:40:52;;;;;;;22.27;12.35;;;11.70;99.90;;;;;;5077851;28;20052;-81
2023/05/08 05:43:18;;;;;;;23.10;12.77;;;11.80;99.90;;;;;;5078543;28;20469;-79
2023/05/08 05:45:44;;;;;;;21.73;13.07;;;11.80;99.90;;;;;;5078096;28;20086;-80
2023/05/08 05:48:10;;;;;;;21.05;12.43;;;11.80;99.90;;;;;;5076430;28;20041;-78
2023/05/08 05:50:36;;;;;;;21.00;12.23;;;11.90;99.90;;;;;;5076362;28;20044;-79
2023/05/08 05:53:02;;;;;;;20.83;12.27;;;11.90;99.90;;;;;;5027009;28;20394;-79
2023/05/08 05:55:28;;;;;;;21.45;12.40;;;11.90;99.90;;;;;;5076026;28;20526;-80
2023/05/08 05:57:54;;;;;;;20.25;12.02;;;12.10;99.90;;;;;;5077923;28;20094;-79
2023/05/08 06:00:20;;;;;;;23.90;12.50;;;12.10;99.90;;;;;;5077966;28;20356;-78
2023/05/08 06:02:47;;;;;;;22.50;12.55;;;12.20;99.90;;;;;;5076028;28;20041;-79
2023/05/08 06:05:13;;;;;;;20.00;12.32;;;12.20;99.90;;;;;;5076899;28;20044;-78
2023/05/08 06:07:38;;;;;;;20.08;12.40;;;12.30;99.90;;;;;;5075899;28;20098;-78
2023/05/08 06:10:05;;;;;;;20.05;12.45;;;12.30;99.90;;;;;;5077746;28;20386;-80
2023/05/08 06:12:31;;;;;;;19.63;11.68;;;12.40;99.90;;;;;;5076742;28;20457;-80
2023/05/08 06:14:57;;;;;;;20.02;11.60;;;12.40;99.90;;;;;;5059082;28;20106;-81
2023/05/08 06:17:22;;;;;;;19.58;11.80;;;12.50;99.90;;;;;;5077256;28;20388;-79
2023/05/08 06:19:49;;;;;;;20.08;11.88;;;12.60;99.90;;;;;;5075845;28;20044;-82
2023/05/08 06:22:22;;;;;;;18.88;12.07;;;12.70;99.90;;;;;;5059263;28;20052;-80
2023/05/08 06:24:48;;;;;;;20.13;11.77;;;12.70;99.90;;;;;;5059571;28;20234;-80
2023/05/08 06:27:14;;;;;;;21.40;11.85;;;12.80;99.90;;;;;;5059456;28;20055;-80
2023/05/08 06:29:40;;;;;;;20.05;11.38;;;12.80;99.90;;;;;;5059183;28;20040;-79
2023/05/08 06:32:06;;;;;;;20.15;11.85;;;12.90;99.90;;;;;;5076573;28;20095;-80
2023/05/08 06:34:31;;;;;;;19.00;10.95;;;13.00;99.90;;;;;;5076634;28;20048;-80
2023/05/08 06:36:57;;;;;;;22.80;12.38;;;13.10;99.90;;;;;;5076861;28;20429;-78
2023/05/08 06:39:23;;;;;;;19.73;10.45;;;13.00;99.90;;;;;;5076319;28;20131;-82
2023/05/08 06:41:49;;;;;;;19.95;12.32;;;13.20;99.90;;;;;;5058855;28;20044;-81
2023/05/08 06:44:15;;;;;;;18.08;11.48;;;13.30;99.90;;;;;;5077087;28;20044;-78
2023/05/08 06:46:41;;;;;;;18.93;11.43;;;13.40;99.90;;;;;;5075097;28;20040;-81
2023/05/08 06:49:07;;;;;;;19.50;10.13;;;13.60;99.90;;;;;;5043085;28;20155;-80
2023/05/08 06:51:34;;;;;;;19.10;11.75;;;13.80;99.90;;;;;;5073656;28;20508;-78
2023/05/08 06:54:00;;;;;;;19.20;12.02;;;13.90;99.90;;;;;;5058576;28;20047;-82
2023/05/08 06:56:26;;;;;;;21.75;12.43;;;14.00;99.90;;;;;;5075976;28;20090;-80
2023/05/08 06:58:52;;;;;;;17.40;10.88;;;14.20;99.90;;;;;;5076151;28;20440;-80
2023/05/08 07:01:18;;;;;;;18.88;11.77;;;14.30;99.90;;;;;;5058250;28;20044;-79
2023/05/08 07:03:43;;;;;;;19.08;11.95;;;14.40;99.90;;;;;;5076114;28;20049;-79
2023/05/08 07:06:09;;;;;;;19.52;12.02;;;14.30;99.90;;;;;;5075189;28;20485;-80
2023/05/08 07:08:36;;;;;;;19.92;11.32;;;14.30;99.90;;;;;;5076329;28;20447;-79
2023/05/08 07:11:02;;;;;;;21.67;12.32;;;14.40;99.90;;;;;;5075142;28;20056;-81
2023/05/08 07:13:28;;;;;;;19.65;12.05;;;14.30;99.90;;;;;;5076094;28;20048;-79
2023/05/08 07:15:54;;;;;;;19.08;11.73;;;14.40;99.90;;;;;;5074916;28;20144;-81
2023/05/08 07:18:20;;;;;;;24.03;13.03;;;14.70;99.90;;;;;;5059429;28;20109;-82
2023/05/08 07:20:46;;;;;;;19.75;12.40;;;14.80;99.90;;;;;;5075096;28;20131;-82
2023/05/08 07:23:12;;;;;;;20.10;12.75;;;14.90;99.90;;;;;;5058144;28;20131;-79
2023/05/08 07:25:38;;;;;;;20.05;12.98;;;15.10;99.90;;;;;;5058302;28;20063;-78
2023/05/08 07:28:04;;;;;;;22.40;12.82;;;15.10;99.90;;;;;;5075306;28;20048;-81
2023/05/08 07:30:29;;;;;;;20.05;12.18;;;15.20;99.90;;;;;;5075913;28;20056;-81
2023/05/08 07:32:55;;;;;;;18.35;11.40;;;15.20;99.90;;;;;;5075317;28;20048;-81
2023/05/08 07:35:21;;;;;;;18.40;11.57;;;15.40;99.90;;;;;;5076226;28;20139;-84
2023/05/08 07:37:47;;;;;;;19.10;11.70;;;15.60;99.90;;;;;;5076490;28;20051;-80
2023/05/08 07:40:14;;;;;;;18.67;11.77;;;15.70;99.90;;;;;;5074903;28;20098;-83
2023/05/08 07:42:41;;;;;;;19.83;12.13;;;15.80;99.90;;;;;;5074898;28;20323;-80
2023/05/08 07:45:07;;;;;;;;;;;15.90;99.90;;;;;;5075175;28;20511;-81
2023/05/08 07:47:33;;;;;;;21.17;12.05;;;16.00;99.90;;;;;;5075043;28;19920;-79
2023/05/08 07:49:59;;;;;;;22.77;11.75;;;16.10;99.90;;;;;;5042414;28;20071;-80
2023/05/08 07:52:25;;;;;;;20.38;11.23;;;16.10;99.90;;;;;;5076292;28;20097;-80
2023/05/08 07:54:51;;;;;;;17.70;12.23;;;16.20;99.90;;;;;;5075379;28;20131;-80
2023/05/08 07:57:16;;;;;;;16.58;11.40;;;16.10;99.90;;;;;;5057889;28;20056;-81
2023/05/08 07:59:42;;;;;;;18.00;11.93;;;16.30;99.90;;;;;;5075957;28;20051;-82
2023/05/08 08:02:08;;;;;;;19.35;12.50;;;16.50;99.90;;;;;;5076013;28;20048;-84
2023/05/08 08:04:33;;;;;;;21.52;12.40;;;16.60;99.90;;;;;;5075975;28;20389;-82
2023/05/08 08:06:59;;;;;;;17.50;12.20;;;16.90;99.90;;;;;;5041883;28;20045;-82
2023/05/08 08:09:25;;;;;;;15.80;11.30;;;17.00;99.90;;;;;;5076788;28;20045;-82
2023/05/08 08:11:54;;;;;;;17.73;11.65;;;;;;;;;;5077372;28;20048;-82
2023/05/08 08:14:19;;;;;;;19.20;11.65;;;17.70;99.90;;;;;;5075778;28;20053;-79
2023/05/08 08:16:45;;;;;;;16.75;11.60;;;17.60;99.90;;;;;;5076368;28;20127;-79
2023/05/08 08:19:11;;;;;;;16.33;10.37;;;17.60;99.90;;;;;;5076791;28;20084;-78
2023/05/08 08:21:46;;;;;;;18.80;11.02;;;17.80;99.90;;;;;;5076999;28;20047;-81
2023/05/08 08:24:12;;;;;;;18.30;11.50;;;18.00;99.90;;;;;;5078085;28;20098;-81
2023/05/08 08:26:38;;;;;;;17.70;11.80;;;17.90;99.90;;;;;;5076716;28;20122;-81
2023/05/08 08:29:03;;;;;;;17.67;11.13;;;18.00;99.90;;;;;;5075979;28;20052;-80
2023/05/08 08:31:29;;;;;;;17.08;11.55;;;18.20;99.90;;;;;;5061273;28;20048;-82
2023/05/08 08:33:56;;;;;;;16.60;12.00;;;17.80;99.90;;;;;;5080430;28;20140;-82
2023/05/08 08:36:21;;;;;;;18.80;11.57;;;18.20;99.90;;;;;;5063109;28;20041;-80
2023/05/08 08:38:47;;;;;;;16.83;11.50;;;18.50;99.90;;;;;;5082007;28;20100;-81
2023/05/08 08:41:16;;;;;;;16.65;11.57;;;18.70;99.90;;;;;;5082744;28;20048;-80
2023/05/08 08:43:42;;;;;;;16.38;11.30;;;18.80;99.90;;;;;;5088794;28;20044;-78
2023/05/08 08:46:15;;;;;;;17.73;12.37;;;19.10;99.90;;;;;;5089124;28;20043;-83
2023/05/08 08:48:47;;;;;;;15.65;11.60;;;19.20;99.90;;;;;;5072620;28;20044;-83
2023/05/08 08:51:42;;;;;;;16.58;11.13;;;19.20;99.90;;;;;;5081103;28;20044;-81
2023/05/08 08:54:19;;;;;;;17.45;12.23;;;19.40;99.90;;;;;;5063408;28;20455;-80
2023/05/08 08:56:47;;;;;;;16.48;11.88;;;19.50;99.90;;;;;;5080121;28;20060;-82
2023/05/08 08:59:15;;;;;;;17.15;12.52;;;19.20;99.90;;;;;;5078079;28;20053;-83
2023/05/08 09:01:46;;;;;;;18.38;11.43;;;19.30;99.90;;;;;;5079769;28;20078;-81
2023/05/08 09:04:12;;;;;;;16.73;11.82;;;19.70;99.90;;;;;;5084440;28;20064;-82
2023/05/08 09:06:40;;;;;;;17.27;11.63;;;19.70;99.90;;;;;;5082282;28;20048;-81
2023/05/08 09:09:05;;;;;;;16.67;12.40;;;19.70;99.90;;;;;;5064713;28;20052;-82
2023/05/08 09:11:32;;;;;;;16.53;12.00;;;19.70;99.90;;;;;;5082257;28;20051;-84
2023/05/08 09:13:58;;;;;;;18.10;12.15;;;19.50;99.90;;;;;;5044061;28;20139;-83
2023/05/08 09:16:26;;;;;;;17.88;12.27;;;19.60;99.90;;;;;;5078153;28;20098;-82
2023/05/08 09:18:52;;;;;;;17.92;11.50;;;19.60;99.90;;;;;;5076936;28;20104;-82
2023/05/08 09:21:19;;;;;;;15.30;11.17;;;19.50;99.90;;;;;;5079383;28;20048;-81
2023/05/08 09:23:57;;;;;;;16.70;11.63;;;19.50;99.90;;;;;;5079205;28;20076;-83
2023/05/08 09:26:34;;;;;;;16.67;12.07;;;19.60;99.90;;;;;;5079935;28;20052;-82
2023/05/08 09:29:10;;;;;;;19.23;12.90;;;19.30;99.90;;;;;;5084104;28;20049;-83
2023/05/08 09:31:40;;;;;;;18.60;11.95;;;19.40;99.90;;;;;;5078950;28;20052;-81
2023/05/08 09:34:10;;;;;;;19.48;12.57;;;19.30;99.90;;;;;;5078317;28;20083;-80
2023/05/08 09:36:39;;;;;;;18.70;12.93;;;19.20;99.90;;;;;;5075131;28;20169;-84
2023/05/08 09:39:12;;;;;;;17.75;12.07;;;19.20;99.90;;;;;;5074402;28;20127;-80
2023/05/08 09:41:38;;;;;;;18.08;13.02;;;19.20;99.90;;;;;;5075755;28;20139;-80
2023/05/08 09:44:06;;;;;;;17.10;12.60;;;19.20;99.90;;;;;;5076177;28;20044;-83
2023/05/08 09:46:33;;;;;;;21.45;12.93;;;19.20;99.90;;;;;;5058311;28;20041;-82
2023/05/08 09:49:01;;;;;;;17.77;12.52;;;19.20;99.90;;;;;;5075866;28;20388;-82
2023/05/08 09:51:29;;;;;;;19.50;12.52;;;19.10;99.90;;;;;;5076291;28;20074;-83
2023/05/08 09:53:56;;;;;;;20.83;12.77;;;19.10;99.90;;;;;;5074843;28;20051;-78
2023/05/08 09:56:38;;;;;;;18.80;13.57;;;19.10;99.90;;;;;;5057539;28;20076;-80
2023/05/08 09:59:20;;;;;;;18.15;12.80;;;19.10;99.90;;;;;;5075463;28;20057;-82
2023/05/08 10:01:47;;;;;;;18.27;13.30;;;19.20;99.90;;;;;;5074722;28;20045;-82
2023/05/08 10:04:13;;;;;;;;;;;19.20;99.90;;;;;;5077600;28;20052;-82
2023/05/08 10:06:39;;;;;;;19.45;13.27;;;19.40;99.90;;;;;;5075145;28;19921;-85
2023/05/08 10:09:09;;;;;;;21.50;13.73;;;19.50;99.90;;;;;;5074236;28;20040;-80
2023/05/08 10:11:35;;;;;;;19.65;12.68;;;19.50;99.90;;;;;;5074196;28;20048;-81
2023/05/08 10:14:01;;;;;;;20.93;13.27;;;19.60;99.90;;;;;;5075367;28;20128;-82
2023/05/08 10:16:28;;;;;;;20.33;13.40;;;19.80;99.90;;;;;;5074782;28;20157;-83
2023/05/08 10:19:04;;;;;;;17.60;12.00;;;19.90;99.90;;;;;;5059234;28;20049;-84
2023/05/08 10:21:36;;;;;;;19.10;12.80;;;20.00;99.90;;;;;;5076781;28;20040;-81
2023/05/08 10:24:05;;;;;;;17.95;12.30;;;20.00;99.90;;;;;;5078501;28;20345;-81
2023/05/08 10:26:35;;;;;;;18.08;13.73;;;20.20;99.90;;;;;;5066879;28;20036;-82
2023/05/08 10:29:06;;;;;;;16.73;12.70;;;20.30;99.90;;;;;;5088029;28;20049;-82
2023/05/08 10:31:35;;;;;;;20.55;13.82;;;20.30;99.90;;;;;;5087459;28;20055;-83
2023/05/08 10:34:02;;;;;;;19.67;13.02;;;20.50;99.90;;;;;;5089090;28;20122;-81
2023/05/08 10:36:30;;;;;;;18.58;13.48;;;20.60;99.90;;;;;;5083635;28;20049;-83
2023/05/08 10:38:59;;;;;;;18.48;12.38;;;20.70;99.90;;;;;;5084139;28;20046;-81
2023/05/08 10:41:26;;;;;;;21.88;14.20;;;20.70;99.90;;;;;;5086006;28;20049;-81
2023/05/08 10:43:53;;;;;;;21.23;15.02;;;20.90;99.90;;;;;;5089314;28;20465;-82
2023/05/08 10:46:29;;;;;;;19.42;13.55;;;20.90;99.90;;;;;;5085764;28;20044;-80
2023/05/08 10:49:00;;;;;;;;;;;21.10;99.90;;;;;;5089013;28;20048;-81
2023/05/08 10:51:42;;;;;;;19.17;13.75;;;;;;;;;;5088635;28;20001;-81
2023/05/08 10:54:31;;;;;;;22.40;14.63;;;;;;;;;;5090525;28;20079;-81
2023/05/08 10:57:10;;;;;;;20.52;14.10;;;;;;;;;;5083424;28;20045;-79
2023/05/08 10:59:37;;;;;;;39.78;17.40;;;;;;;;;;5085699;28;20079;-79
2023/05/08 11:02:04;;;;;;;26.95;16.05;;;;;;;;;;5086894;28;20148;-83
2023/05/08 11:04:30;;;;;;;19.08;13.38;;;;;;;;;;5088285;28;20476;-83
2023/05/08 11:06:57;;;;;;;23.80;14.45;;;;;;;;;;5088310;28;20047;-83
2023/05/08 11:09:42;;;;;;;17.90;12.43;;;;;;;;;;5068572;28;20048;-78
2023/05/08 11:12:18;;;;;;;19.42;13.57;;;;;;;;;;5083435;28;20063;-82
2023/05/08 11:14:52;;;;;;;18.90;13.77;;;;;;;;;;5064726;28;20132;-84
2023/05/08 11:17:23;;;;;;;17.52;12.90;;;;;;;;;;5066382;28;20056;-84
2023/05/08 11:19:57;;;;;;;21.48;13.27;;;;;;;;;;5085779;28;20036;-84
2023/05/08 11:22:24;;;;;;;20.67;14.20;;;;;;;;;;5071636;28;20048;-84
2023/05/08 11:25:20;;;;;;;18.35;13.55;;;;;;;;;;5086721;28;20049;-80
2023/05/08 11:27:49;;;;;;;18.13;13.07;;;;;;;;;;5069015;28;20049;-84
2023/05/08 11:30:23;;;;;;;19.20;13.98;;;;;;;;;;5065915;28;20053;-81
2023/05/08 11:32:59;;;;;;;19.27;14.13;;;;;;;;;;5083053;28;20114;-81
2023/05/08 11:35:45;;;;;;;19.58;13.65;;;;;;;;;;5077089;28;20067;-81
2023/05/08 11:38:32;;;;;;;18.98;12.82;;;;;;;;;;5076183;28;20131;-84
2023/05/08 11:40:59;;;;;;;17.00;12.30;;;;;;;;;;5065192;28;20071;-83
2023/05/08 11:43:26;;;;;;;19.20;12.68;;;;;;;;;;5078667;28;20067;-80
2023/05/08 11:45:52;;;;;;;;;;;;;;;;;;5077819;28;20055;-86
2023/05/08 11:48:19;;;;;;;17.70;11.88;;;;;;;;;;5075785;28;19924;-79
2023/05/08 11:50:45;;;;;;;17.80;12.90;;;;;;;;;;5078016;28;20102;-85
2023/05/08 11:53:12;;;;;;;19.13;13.48;;;;;;;;;;5075869;28;20071;-83
2023/05/08 11:55:38;;;;;;;18.48;13.18;;;;;;;;;;5075417;28;20565;-85
2023/05/08 11:58:14;;;;;;;17.13;11.95;;;;;;;;;;5058154;28;20063;-78
2023/05/08 12:00:44;;;;;;;20.38;12.38;;;;;;;;;;5075026;28;20048;-83
2023/05/08 12:03:14;;;;;;;16.00;11.98;;;;;;;;;;5074578;28;20094;-79
2023/05/08 12:05:40;;;;;;;18.38;13.60;;;;;;;;;;5075448;28;20048;-83
2023/05/08 12:08:06;;;;;;;;;;;;;;;;;;5075776;28;20380;-81
2023/05/08 12:10:33;;;;;;;20.92;13.95;;;;;;;;;;5057646;28;20007;-82
2023/05/08 12:12:59;;;;;;;20.50;14.32;;;;;;;;;;5057727;28;20051;-84
2023/05/08 12:15:25;;;;;;;19.92;14.40;;;;;;;;;;5041604;28;20045;-82
2023/05/08 12:18:01;;;;;;;19.38;13.65;;;;;;;;;;5075212;28;20044;-84
2023/05/08 12:20:27;;;;;;;20.25;13.23;;;;;;;;;;5075620;28;20064;-83
2023/05/08 12:22:53;;;;;;;19.45;13.45;;;;;;;;;;5057388;28;20131;-84
2023/05/08 12:25:20;;;;;;;17.88;11.93;;;;;;;;;;5075066;28;20488;-83
2023/05/08 12:27:46;;;;;;;18.83;13.85;;;;;;;;;;5074404;28;20048;-81
2023/05/08 12:30:13;;;;;;;21.98;15.10;;;;;;;;;;5073290;28;20108;-80
2023/05/08 12:32:42;;;;;;;19.60;14.30;;;;;;;;;;5074689;28;20124;-79
2023/05/08 12:35:09;;;;;;;17.45;11.63;;;;;;;;;;5073546;28;20135;-82
2023/05/08 12:37:35;;;;;;;;;;;;;;;;;;5075445;28;20055;-77
2023/05/08 12:40:02;;;;;;;18.75;13.50;;;;;;;;;;5075382;28;20395;-83
2023/05/08 12:42:47;;;;;;;19.00;13.18;;;;;;;;;;5058182;28;20135;-83
2023/05/08 12:45:17;;;;;;;20.55;14.73;;;;;;;;;;5075875;28;20057;-79
2023/05/08 12:47:49;;;;;;;22.45;15.40;;;;;;;;;;5077103;28;20097;-83
2023/05/08 12:50:16;;;;;;;22.15;15.65;;;;;;;;;;5075454;28;20142;-84
2023/05/08 12:52:42;;;;;;;;;;;;;;;;;;5075282;28;20040;-84
2023/05/08 12:55:25;;;;;;;21.67;15.05;;;;;;;;;;5074444;28;19971;-84
2023/05/08 12:58:14;;;;;;;19.48;14.90;;;;;;;;;;5074436;28;20213;-81
2023/05/08 13:00:40;;;;;;;26.02;17.23;;;;;;;;;;5078997;28;20079;-86